Aviation Digital Data Service (ADDS)

Output produced by METARs form (0928 UTC 29 July 2015)
found at http://aviationweather.gov/adds/metars/
 
KBAF 290825Z 2908/3006 00000KT 5SM BR FEW250 
     FM291200 00000KT P6SM FEW080 
     FM291800 24006KT P6SM FEW050